sensor_id;sensor_type;location;lat;lon;timestamp;temperature;humidity
8914;DHT22;4492;48.736;9.092;2022-07-06T00:01:44;16.20;90.20
8914;DHT22;4492;48.736;9.092;2022-07-06T00:04:10;16.20;90.50
8914;DHT22;4492;48.736;9.092;2022-07-06T00:06:36;16.10;90.60
8914;DHT22;4492;48.736;9.092;2022-07-06T00:09:02;16.10;90.80
8914;DHT22;4492;48.736;9.092;2022-07-06T00:11:28;16.00;91.10
8914;DHT22;4492;48.736;9.092;2022-07-06T00:13:54;16.00;91.30
8914;DHT22;4492;48.736;9.092;2022-07-06T00:16:22;16.00;91.70
8914;DHT22;4492;48.736;9.092;2022-07-06T00:18:48;15.90;91.50
8914;DHT22;4492;48.736;9.092;2022-07-06T00:21:13;15.80;92.20
8914;DHT22;4492;48.736;9.092;2022-07-06T00:23:39;15.70;92.10
8914;DHT22;4492;48.736;9.092;2022-07-06T00:26:04;15.60;92.20
8914;DHT22;4492;48.736;9.092;2022-07-06T00:28:30;15.60;92.30
8914;DHT22;4492;48.736;9.092;2022-07-06T00:30:56;15.60;92.30
8914;DHT22;4492;48.736;9.092;2022-07-06T00:33:21;15.60;92.40
8914;DHT22;4492;48.736;9.092;2022-07-06T00:35:48;15.60;92.40
8914;DHT22;4492;48.736;9.092;2022-07-06T00:38:14;15.60;92.40
8914;DHT22;4492;48.736;9.092;2022-07-06T00:40:39;15.60;92.30
8914;DHT22;4492;48.736;9.092;2022-07-06T00:43:05;15.60;92.50
8914;DHT22;4492;48.736;9.092;2022-07-06T00:45:30;15.60;92.50
8914;DHT22;4492;48.736;9.092;2022-07-06T00:47:56;15.50;92.60
8914;DHT22;4492;48.736;9.092;2022-07-06T00:50:22;15.60;92.60
8914;DHT22;4492;48.736;9.092;2022-07-06T00:52:54;15.60;92.60
8914;DHT22;4492;48.736;9.092;2022-07-06T00:55:23;15.50;92.70
8914;DHT22;4492;48.736;9.092;2022-07-06T00:57:49;15.50;92.70
8914;DHT22;4492;48.736;9.092;2022-07-06T01:00:17;15.40;92.80
8914;DHT22;4492;48.736;9.092;2022-07-06T01:02:43;15.40;93.00
8914;DHT22;4492;48.736;9.092;2022-07-06T01:05:10;15.40;93.00
8914;DHT22;4492;48.736;9.092;2022-07-06T01:07:39;15.30;93.00
8914;DHT22;4492;48.736;9.092;2022-07-06T01:10:06;15.40;93.10
8914;DHT22;4492;48.736;9.092;2022-07-06T01:12:32;15.40;93.00
8914;DHT22;4492;48.736;9.092;2022-07-06T01:14:59;15.40;93.00
8914;DHT22;4492;48.736;9.092;2022-07-06T01:17:26;15.30;93.00
8914;DHT22;4492;48.736;9.092;2022-07-06T01:19:51;15.30;93.20
8914;DHT22;4492;48.736;9.092;2022-07-06T01:22:17;15.20;93.20
8914;DHT22;4492;48.736;9.092;2022-07-06T01:24:42;15.20;93.50
8914;DHT22;4492;48.736;9.092;2022-07-06T01:27:08;15.20;93.50
8914;DHT22;4492;48.736;9.092;2022-07-06T01:29:33;15.20;93.50
8914;DHT22;4492;48.736;9.092;2022-07-06T01:31:59;15.10;93.50
8914;DHT22;4492;48.736;9.092;2022-07-06T01:34:25;15.10;93.60
8914;DHT22;4492;48.736;9.092;2022-07-06T01:36:51;15.00;93.50
8914;DHT22;4492;48.736;9.092;2022-07-06T01:39:17;15.00;93.80
8914;DHT22;4492;48.736;9.092;2022-07-06T01:41:42;15.00;93.60
8914;DHT22;4492;48.736;9.092;2022-07-06T01:44:08;15.10;93.60
8914;DHT22;4492;48.736;9.092;2022-07-06T01:46:34;15.00;93.50
8914;DHT22;4492;48.736;9.092;2022-07-06T01:48:59;15.00;93.50
8914;DHT22;4492;48.736;9.092;2022-07-06T01:51:25;14.90;93.50
8914;DHT22;4492;48.736;9.092;2022-07-06T01:53:51;14.80;93.70
8914;DHT22;4492;48.736;9.092;2022-07-06T01:56:17;14.80;93.80
8914;DHT22;4492;48.736;9.092;2022-07-06T01:58:45;14.80;93.90
8914;DHT22;4492;48.736;9.092;2022-07-06T02:01:17;14.80;94.10
8914;DHT22;4492;48.736;9.092;2022-07-06T02:03:43;14.70;94.20
8914;DHT22;4492;48.736;9.092;2022-07-06T02:06:10;14.70;94.30
8914;DHT22;4492;48.736;9.092;2022-07-06T02:08:38;14.70;94.30
8914;DHT22;4492;48.736;9.092;2022-07-06T02:11:04;14.70;94.40
8914;DHT22;4492;48.736;9.092;2022-07-06T02:13:30;14.70;94.50
8914;DHT22;4492;48.736;9.092;2022-07-06T02:15:55;14.60;94.60
8914;DHT22;4492;48.736;9.092;2022-07-06T02:18:21;14.60;94.60
8914;DHT22;4492;48.736;9.092;2022-07-06T02:20:46;14.70;94.60
8914;DHT22;4492;48.736;9.092;2022-07-06T02:23:12;14.60;94.70
8914;DHT22;4492;48.736;9.092;2022-07-06T02:25:38;14.60;94.80
8914;DHT22;4492;48.736;9.092;2022-07-06T02:28:03;14.50;95.00
8914;DHT22;4492;48.736;9.092;2022-07-06T02:30:29;14.50;95.30
8914;DHT22;4492;48.736;9.092;2022-07-06T02:32:55;14.40;95.30
8914;DHT22;4492;48.736;9.092;2022-07-06T02:35:20;14.30;95.60
8914;DHT22;4492;48.736;9.092;2022-07-06T02:37:46;14.30;95.70
8914;DHT22;4492;48.736;9.092;2022-07-06T02:40:12;14.40;95.80
8914;DHT22;4492;48.736;9.092;2022-07-06T02:42:38;14.30;95.90
8914;DHT22;4492;48.736;9.092;2022-07-06T02:45:05;14.30;96.10
8914;DHT22;4492;48.736;9.092;2022-07-06T02:47:30;14.20;96.30
8914;DHT22;4492;48.736;9.092;2022-07-06T02:49:56;14.20;96.50
8914;DHT22;4492;48.736;9.092;2022-07-06T02:52:22;14.20;96.60
8914;DHT22;4492;48.736;9.092;2022-07-06T02:54:48;14.10;96.90
8914;DHT22;4492;48.736;9.092;2022-07-06T02:57:14;14.00;97.20
8914;DHT22;4492;48.736;9.092;2022-07-06T02:59:40;14.00;97.40
8914;DHT22;4492;48.736;9.092;2022-07-06T03:02:06;14.00;97.70
8914;DHT22;4492;48.736;9.092;2022-07-06T03:04:32;13.90;97.90
8914;DHT22;4492;48.736;9.092;2022-07-06T03:06:58;13.90;98.10
8914;DHT22;4492;48.736;9.092;2022-07-06T03:09:23;13.90;98.30
8914;DHT22;4492;48.736;9.092;2022-07-06T03:11:49;13.80;98.60
8914;DHT22;4492;48.736;9.092;2022-07-06T03:14:15;13.80;98.80
8914;DHT22;4492;48.736;9.092;2022-07-06T03:16:40;13.70;99.20
8914;DHT22;4492;48.736;9.092;2022-07-06T03:19:06;13.70;99.40
8914;DHT22;4492;48.736;9.092;2022-07-06T03:21:31;13.70;99.80
8914;DHT22;4492;48.736;9.092;2022-07-06T03:23:57;13.60;99.90
8914;DHT22;4492;48.736;9.092;2022-07-06T03:26:22;13.60;99.90
8914;DHT22;4492;48.736;9.092;2022-07-06T03:28:48;13.70;99.90
8914;DHT22;4492;48.736;9.092;2022-07-06T03:31:13;13.60;99.90
8914;DHT22;4492;48.736;9.092;2022-07-06T03:33:39;13.60;99.90
8914;DHT22;4492;48.736;9.092;2022-07-06T03:36:05;13.60;99.90
8914;DHT22;4492;48.736;9.092;2022-07-06T03:38:30;13.60;99.90
8914;DHT22;4492;48.736;9.092;2022-07-06T03:40:56;13.60;99.90
8914;DHT22;4492;48.736;9.092;2022-07-06T03:43:22;13.60;99.90
8914;DHT22;4492;48.736;9.092;2022-07-06T03:45:47;13.60;99.90
8914;DHT22;4492;48.736;9.092;2022-07-06T03:48:13;13.50;99.90
8914;DHT22;4492;48.736;9.092;2022-07-06T03:50:38;13.50;99.90
8914;DHT22;4492;48.736;9.092;2022-07-06T03:53:04;13.50;99.90
8914;DHT22;4492;48.736;9.092;2022-07-06T03:55:29;13.40;99.90
8914;DHT22;4492;48.736;9.092;2022-07-06T03:57:55;13.50;99.90
8914;DHT22;4492;48.736;9.092;2022-07-06T04:00:20;13.40;99.90
8914;DHT22;4492;48.736;9.092;2022-07-06T04:02:46;13.40;99.90
8914;DHT22;4492;48.736;9.092;2022-07-06T04:05:12;13.50;99.90
8914;DHT22;4492;48.736;9.092;2022-07-06T04:07:37;13.50;99.90
8914;DHT22;4492;48.736;9.092;2022-07-06T04:10:03;13.50;99.90
8914;DHT22;4492;48.736;9.092;2022-07-06T04:12:29;13.50;99.90
8914;DHT22;4492;48.736;9.092;2022-07-06T04:14:56;13.50;99.90
8914;DHT22;4492;48.736;9.092;2022-07-06T04:17:23;13.50;99.90
8914;DHT22;4492;48.736;9.092;2022-07-06T04:20:08;13.60;99.90
8914;DHT22;4492;48.736;9.092;2022-07-06T04:22:37;13.60;99.90
8914;DHT22;4492;48.736;9.092;2022-07-06T04:25:03;13.60;99.90
8914;DHT22;4492;48.736;9.092;2022-07-06T04:27:29;13.60;99.90
8914;DHT22;4492;48.736;9.092;2022-07-06T04:29:54;13.60;99.90
8914;DHT22;4492;48.736;9.092;2022-07-06T04:32:20;13.70;99.90
8914;DHT22;4492;48.736;9.092;2022-07-06T04:34:46;13.70;99.90
8914;DHT22;4492;48.736;9.092;2022-07-06T04:37:11;13.70;99.90
8914;DHT22;4492;48.736;9.092;2022-07-06T04:39:37;13.70;99.90
8914;DHT22;4492;48.736;9.092;2022-07-06T04:42:02;13.70;99.90
8914;DHT22;4492;48.736;9.092;2022-07-06T04:44:28;13.80;99.90
8914;DHT22;4492;48.736;9.092;2022-07-06T04:46:54;13.80;99.90
8914;DHT22;4492;48.736;9.092;2022-07-06T04:49:19;13.80;99.90
8914;DHT22;4492;48.736;9.092;2022-07-06T04:51:45;13.90;99.90
8914;DHT22;4492;48.736;9.092;2022-07-06T04:54:10;13.90;99.90
8914;DHT22;4492;48.736;9.092;2022-07-06T04:56:36;13.90;99.90
8914;DHT22;4492;48.736;9.092;2022-07-06T04:59:01;14.00;99.90
8914;DHT22;4492;48.736;9.092;2022-07-06T05:01:27;14.10;99.90
8914;DHT22;4492;48.736;9.092;2022-07-06T05:03:52;14.10;99.90
8914;DHT22;4492;48.736;9.092;2022-07-06T05:06:18;14.10;99.90
8914;DHT22;4492;48.736;9.092;2022-07-06T05:08:45;14.20;99.90
8914;DHT22;4492;48.736;9.092;2022-07-06T05:11:11;14.30;99.90
8914;DHT22;4492;48.736;9.092;2022-07-06T05:13:36;14.30;99.90
8914;DHT22;4492;48.736;9.092;2022-07-06T05:16:02;14.40;99.90
8914;DHT22;4492;48.736;9.092;2022-07-06T05:18:27;14.50;99.90
8914;DHT22;4492;48.736;9.092;2022-07-06T05:20:53;14.50;99.90
8914;DHT22;4492;48.736;9.092;2022-07-06T05:23:18;14.60;99.90
8914;DHT22;4492;48.736;9.092;2022-07-06T05:25:44;14.70;99.90
8914;DHT22;4492;48.736;9.092;2022-07-06T05:28:09;14.80;99.90
8914;DHT22;4492;48.736;9.092;2022-07-06T05:30:35;14.80;99.90
8914;DHT22;4492;48.736;9.092;2022-07-06T05:33:00;14.80;99.90
8914;DHT22;4492;48.736;9.092;2022-07-06T05:35:26;14.90;99.90
8914;DHT22;4492;48.736;9.092;2022-07-06T05:37:51;15.00;99.90
8914;DHT22;4492;48.736;9.092;2022-07-06T05:40:17;15.00;99.90
8914;DHT22;4492;48.736;9.092;2022-07-06T05:42:42;15.00;99.90
8914;DHT22;4492;48.736;9.092;2022-07-06T05:45:08;15.10;99.90
8914;DHT22;4492;48.736;9.092;2022-07-06T05:47:34;15.10;99.90
8914;DHT22;4492;48.736;9.092;2022-07-06T05:50:18;15.30;99.90
8914;DHT22;4492;48.736;9.092;2022-07-06T05:52:51;15.40;99.90
8914;DHT22;4492;48.736;9.092;2022-07-06T05:55:19;15.40;99.90
8914;DHT22;4492;48.736;9.092;2022-07-06T05:57:45;15.50;99.90
8914;DHT22;4492;48.736;9.092;2022-07-06T06:00:11;15.60;99.90
8914;DHT22;4492;48.736;9.092;2022-07-06T06:02:38;15.70;99.90
8914;DHT22;4492;48.736;9.092;2022-07-06T06:05:05;15.80;99.90
8914;DHT22;4492;48.736;9.092;2022-07-06T06:07:33;15.80;99.90
8914;DHT22;4492;48.736;9.092;2022-07-06T06:09:58;16.00;99.90
8914;DHT22;4492;48.736;9.092;2022-07-06T06:12:24;16.00;99.90
8914;DHT22;4492;48.736;9.092;2022-07-06T06:14:49;16.10;99.90
8914;DHT22;4492;48.736;9.092;2022-07-06T06:17:15;16.10;99.90
8914;DHT22;4492;48.736;9.092;2022-07-06T06:19:40;16.20;99.90
8914;DHT22;4492;48.736;9.092;2022-07-06T06:22:06;16.30;99.90
8914;DHT22;4492;48.736;9.092;2022-07-06T06:24:32;16.40;99.30
8914;DHT22;4492;48.736;9.092;2022-07-06T06:26:58;16.40;99.30
8914;DHT22;4492;48.736;9.092;2022-07-06T06:29:24;16.40;99.70
8914;DHT22;4492;48.736;9.092;2022-07-06T06:31:50;16.50;99.10
8914;DHT22;4492;48.736;9.092;2022-07-06T06:34:15;16.40;99.40
8914;DHT22;4492;48.736;9.092;2022-07-06T06:36:41;16.40;99.30
8914;DHT22;4492;48.736;9.092;2022-07-06T06:39:06;16.50;99.30
8914;DHT22;4492;48.736;9.092;2022-07-06T06:41:32;16.50;99.10
8914;DHT22;4492;48.736;9.092;2022-07-06T06:43:58;16.60;98.40
8914;DHT22;4492;48.736;9.092;2022-07-06T06:46:23;16.70;98.30
8914;DHT22;4492;48.736;9.092;2022-07-06T06:48:49;16.70;98.70
8914;DHT22;4492;48.736;9.092;2022-07-06T06:51:14;16.70;98.60
8914;DHT22;4492;48.736;9.092;2022-07-06T06:53:40;16.80;98.50
8914;DHT22;4492;48.736;9.092;2022-07-06T06:56:06;16.80;98.50
8914;DHT22;4492;48.736;9.092;2022-07-06T06:58:31;16.70;98.30
8914;DHT22;4492;48.736;9.092;2022-07-06T07:00:57;16.70;98.40
8914;DHT22;4492;48.736;9.092;2022-07-06T07:03:22;16.80;97.90
8914;DHT22;4492;48.736;9.092;2022-07-06T07:05:48;16.90;97.80
8914;DHT22;4492;48.736;9.092;2022-07-06T07:08:14;16.90;97.70
8914;DHT22;4492;48.736;9.092;2022-07-06T07:10:39;17.10;97.70
8914;DHT22;4492;48.736;9.092;2022-07-06T07:13:05;17.20;97.50
8914;DHT22;4492;48.736;9.092;2022-07-06T07:15:30;17.40;96.60
8914;DHT22;4492;48.736;9.092;2022-07-06T07:17:56;17.60;97.40
8914;DHT22;4492;48.736;9.092;2022-07-06T07:20:22;17.70;96.80
8914;DHT22;4492;48.736;9.092;2022-07-06T07:22:50;17.80;96.50
8914;DHT22;4492;48.736;9.092;2022-07-06T07:25:16;17.90;96.00
8914;DHT22;4492;48.736;9.092;2022-07-06T07:27:41;18.00;95.90
8914;DHT22;4492;48.736;9.092;2022-07-06T07:30:07;18.10;94.80
8914;DHT22;4492;48.736;9.092;2022-07-06T07:32:33;18.00;95.00
8914;DHT22;4492;48.736;9.092;2022-07-06T07:34:59;18.10;95.20
8914;DHT22;4492;48.736;9.092;2022-07-06T07:37:25;18.30;94.90
8914;DHT22;4492;48.736;9.092;2022-07-06T07:39:50;18.40;94.50
8914;DHT22;4492;48.736;9.092;2022-07-06T07:42:16;18.40;94.80
8914;DHT22;4492;48.736;9.092;2022-07-06T07:44:41;18.50;93.70
8914;DHT22;4492;48.736;9.092;2022-07-06T07:47:07;18.40;93.90
8914;DHT22;4492;48.736;9.092;2022-07-06T07:49:32;18.40;94.10
8914;DHT22;4492;48.736;9.092;2022-07-06T07:51:58;18.50;94.00
8914;DHT22;4492;48.736;9.092;2022-07-06T07:54:23;18.60;94.20
8914;DHT22;4492;48.736;9.092;2022-07-06T07:56:49;18.80;94.00
8914;DHT22;4492;48.736;9.092;2022-07-06T07:59:14;19.00;93.80
8914;DHT22;4492;48.736;9.092;2022-07-06T08:01:40;19.00;93.30
8914;DHT22;4492;48.736;9.092;2022-07-06T08:04:06;19.00;93.30
8914;DHT22;4492;48.736;9.092;2022-07-06T08:06:32;19.00;92.80
8914;DHT22;4492;48.736;9.092;2022-07-06T08:08:58;18.90;92.80
8914;DHT22;4492;48.736;9.092;2022-07-06T08:11:23;18.90;93.40
8914;DHT22;4492;48.736;9.092;2022-07-06T08:13:49;19.00;93.40
8914;DHT22;4492;48.736;9.092;2022-07-06T08:16:15;19.10;93.20
8914;DHT22;4492;48.736;9.092;2022-07-06T08:18:40;19.30;92.50
8914;DHT22;4492;48.736;9.092;2022-07-06T08:21:06;19.50;92.60
8914;DHT22;4492;48.736;9.092;2022-07-06T08:23:32;19.60;92.10
8914;DHT22;4492;48.736;9.092;2022-07-06T08:26:00;19.70;92.00
8914;DHT22;4492;48.736;9.092;2022-07-06T08:28:26;19.60;92.40
8914;DHT22;4492;48.736;9.092;2022-07-06T08:30:51;19.60;92.00
8914;DHT22;4492;48.736;9.092;2022-07-06T08:33:17;19.70;91.90
8914;DHT22;4492;48.736;9.092;2022-07-06T08:35:42;19.70;91.60
8914;DHT22;4492;48.736;9.092;2022-07-06T08:38:08;19.80;91.00
8914;DHT22;4492;48.736;9.092;2022-07-06T08:40:34;19.80;91.40
8914;DHT22;4492;48.736;9.092;2022-07-06T08:43:00;19.70;91.00
8914;DHT22;4492;48.736;9.092;2022-07-06T08:45:26;19.70;91.00
8914;DHT22;4492;48.736;9.092;2022-07-06T08:47:54;19.70;91.90
8914;DHT22;4492;48.736;9.092;2022-07-06T08:50:19;19.90;91.50
8914;DHT22;4492;48.736;9.092;2022-07-06T08:52:47;19.90;91.30
8914;DHT22;4492;48.736;9.092;2022-07-06T08:55:14;19.90;91.20
8914;DHT22;4492;48.736;9.092;2022-07-06T08:57:39;19.90;90.20
8914;DHT22;4492;48.736;9.092;2022-07-06T09:00:09;19.90;90.40
8914;DHT22;4492;48.736;9.092;2022-07-06T09:02:35;20.00;90.60
8914;DHT22;4492;48.736;9.092;2022-07-06T09:05:03;20.10;90.30
8914;DHT22;4492;48.736;9.092;2022-07-06T09:07:29;20.10;89.90
8914;DHT22;4492;48.736;9.092;2022-07-06T09:09:55;20.10;90.50
8914;DHT22;4492;48.736;9.092;2022-07-06T09:12:21;20.10;90.60
8914;DHT22;4492;48.736;9.092;2022-07-06T09:14:47;20.20;90.40
8914;DHT22;4492;48.736;9.092;2022-07-06T09:17:13;20.30;90.30
8914;DHT22;4492;48.736;9.092;2022-07-06T09:19:39;20.50;90.00
8914;DHT22;4492;48.736;9.092;2022-07-06T09:22:05;20.60;89.80
8914;DHT22;4492;48.736;9.092;2022-07-06T09:24:31;20.50;89.70
8914;DHT22;4492;48.736;9.092;2022-07-06T09:26:59;20.50;89.70
8914;DHT22;4492;48.736;9.092;2022-07-06T09:29:30;20.70;89.40
8914;DHT22;4492;48.736;9.092;2022-07-06T09:32:00;20.70;88.90
8914;DHT22;4492;48.736;9.092;2022-07-06T09:34:44;20.60;90.10
8914;DHT22;4492;48.736;9.092;2022-07-06T09:37:10;20.70;89.80
8914;DHT22;4492;48.736;9.092;2022-07-06T09:39:36;20.90;89.50
8914;DHT22;4492;48.736;9.092;2022-07-06T09:42:04;21.00;89.90
8914;DHT22;4492;48.736;9.092;2022-07-06T09:44:35;21.10;88.50
8914;DHT22;4492;48.736;9.092;2022-07-06T09:47:10;21.20;86.40
8914;DHT22;4492;48.736;9.092;2022-07-06T09:49:37;21.10;86.10
8914;DHT22;4492;48.736;9.092;2022-07-06T09:52:05;21.00;87.00
8914;DHT22;4492;48.736;9.092;2022-07-06T09:54:33;21.00;86.70
8914;DHT22;4492;48.736;9.092;2022-07-06T09:57:00;20.90;87.80
8914;DHT22;4492;48.736;9.092;2022-07-06T09:59:28;21.00;85.90
8914;DHT22;4492;48.736;9.092;2022-07-06T10:01:55;21.20;86.90
8914;DHT22;4492;48.736;9.092;2022-07-06T10:04:23;21.30;85.90
8914;DHT22;4492;48.736;9.092;2022-07-06T10:06:50;21.30;87.40
8914;DHT22;4492;48.736;9.092;2022-07-06T10:09:18;21.40;86.70
8914;DHT22;4492;48.736;9.092;2022-07-06T10:11:58;21.50;87.80
8914;DHT22;4492;48.736;9.092;2022-07-06T10:14:30;21.60;86.50
8914;DHT22;4492;48.736;9.092;2022-07-06T10:17:01;21.70;87.80
8914;DHT22;4492;48.736;9.092;2022-07-06T10:19:28;21.90;84.50
8914;DHT22;4492;48.736;9.092;2022-07-06T10:21:56;21.80;85.20
8914;DHT22;4492;48.736;9.092;2022-07-06T10:24:23;21.70;84.90
8914;DHT22;4492;48.736;9.092;2022-07-06T10:26:49;21.60;84.90
8914;DHT22;4492;48.736;9.092;2022-07-06T10:29:15;21.70;84.40
8914;DHT22;4492;48.736;9.092;2022-07-06T10:31:47;21.60;86.10
8914;DHT22;4492;48.736;9.092;2022-07-06T10:34:15;21.80;86.60
8914;DHT22;4492;48.736;9.092;2022-07-06T10:36:47;22.00;84.70
8914;DHT22;4492;48.736;9.092;2022-07-06T10:39:13;22.00;85.10
8914;DHT22;4492;48.736;9.092;2022-07-06T10:41:57;22.20;86.30
8914;DHT22;4492;48.736;9.092;2022-07-06T10:44:26;22.30;84.70
8914;DHT22;4492;48.736;9.092;2022-07-06T10:46:58;22.30;85.70
8914;DHT22;4492;48.736;9.092;2022-07-06T10:49:26;22.20;84.20
8914;DHT22;4492;48.736;9.092;2022-07-06T10:51:51;22.00;84.50
8914;DHT22;4492;48.736;9.092;2022-07-06T10:54:19;22.00;84.60
8914;DHT22;4492;48.736;9.092;2022-07-06T10:56:49;22.20;84.50
8914;DHT22;4492;48.736;9.092;2022-07-06T10:59:21;22.50;83.50
8914;DHT22;4492;48.736;9.092;2022-07-06T11:02:16;22.90;83.40
8914;DHT22;4492;48.736;9.092;2022-07-06T11:04:43;23.20;81.30
8914;DHT22;4492;48.736;9.092;2022-07-06T11:07:13;23.00;81.60
8914;DHT22;4492;48.736;9.092;2022-07-06T11:09:39;22.60;83.10
8914;DHT22;4492;48.736;9.092;2022-07-06T11:12:16;22.60;82.70
8914;DHT22;4492;48.736;9.092;2022-07-06T11:14:43;22.50;82.50
8914;DHT22;4492;48.736;9.092;2022-07-06T11:17:10;22.30;82.60
8914;DHT22;4492;48.736;9.092;2022-07-06T11:19:36;21.90;83.10
8914;DHT22;4492;48.736;9.092;2022-07-06T11:22:07;21.70;84.70
8914;DHT22;4492;48.736;9.092;2022-07-06T11:24:35;21.80;83.80
8914;DHT22;4492;48.736;9.092;2022-07-06T11:27:01;22.00;83.00
8914;DHT22;4492;48.736;9.092;2022-07-06T11:29:28;22.30;84.40
8914;DHT22;4492;48.736;9.092;2022-07-06T11:31:55;22.70;81.90
8914;DHT22;4492;48.736;9.092;2022-07-06T11:34:24;22.90;80.50
8914;DHT22;4492;48.736;9.092;2022-07-06T11:37:08;22.90;82.00
8914;DHT22;4492;48.736;9.092;2022-07-06T11:39:40;23.10;80.40
8914;DHT22;4492;48.736;9.092;2022-07-06T11:42:07;23.20;79.90
8914;DHT22;4492;48.736;9.092;2022-07-06T11:44:34;23.10;79.20
8914;DHT22;4492;48.736;9.092;2022-07-06T11:47:00;22.90;80.30
8914;DHT22;4492;48.736;9.092;2022-07-06T11:49:29;23.00;79.40
8914;DHT22;4492;48.736;9.092;2022-07-06T11:51:55;23.00;80.30
8914;DHT22;4492;48.736;9.092;2022-07-06T11:54:21;23.00;80.70
8914;DHT22;4492;48.736;9.092;2022-07-06T11:56:49;23.00;80.10
8914;DHT22;4492;48.736;9.092;2022-07-06T11:59:16;22.90;79.80
8914;DHT22;4492;48.736;9.092;2022-07-06T12:01:42;22.90;80.40
8914;DHT22;4492;48.736;9.092;2022-07-06T12:04:10;23.00;80.40
8914;DHT22;4492;48.736;9.092;2022-07-06T12:06:36;23.00;80.50
8914;DHT22;4492;48.736;9.092;2022-07-06T12:09:02;22.80;80.60
8914;DHT22;4492;48.736;9.092;2022-07-06T12:11:33;22.40;80.80
8914;DHT22;4492;48.736;9.092;2022-07-06T12:14:03;22.10;82.00
8914;DHT22;4492;48.736;9.092;2022-07-06T12:16:37;21.80;83.20
8914;DHT22;4492;48.736;9.092;2022-07-06T12:19:16;21.80;83.60
8914;DHT22;4492;48.736;9.092;2022-07-06T12:21:47;21.80;84.30
8914;DHT22;4492;48.736;9.092;2022-07-06T12:24:33;22.00;83.00
8914;DHT22;4492;48.736;9.092;2022-07-06T12:27:16;22.10;83.20
8914;DHT22;4492;48.736;9.092;2022-07-06T12:29:42;22.20;83.30
8914;DHT22;4492;48.736;9.092;2022-07-06T12:32:20;22.60;82.40
8914;DHT22;4492;48.736;9.092;2022-07-06T12:34:56;22.70;81.70
8914;DHT22;4492;48.736;9.092;2022-07-06T12:37:27;22.80;80.50
8914;DHT22;4492;48.736;9.092;2022-07-06T12:39:52;22.60;81.60
8914;DHT22;4492;48.736;9.092;2022-07-06T12:42:18;22.70;81.30
8914;DHT22;4492;48.736;9.092;2022-07-06T12:44:50;22.70;81.70
8914;DHT22;4492;48.736;9.092;2022-07-06T12:47:19;22.60;80.40
8914;DHT22;4492;48.736;9.092;2022-07-06T12:49:45;22.70;81.80
8914;DHT22;4492;48.736;9.092;2022-07-06T12:52:16;22.90;79.50
8914;DHT22;4492;48.736;9.092;2022-07-06T12:54:50;23.00;79.70
8914;DHT22;4492;48.736;9.092;2022-07-06T12:57:20;22.90;79.00
8914;DHT22;4492;48.736;9.092;2022-07-06T12:59:58;22.80;80.30
8914;DHT22;4492;48.736;9.092;2022-07-06T13:02:30;22.80;80.40
8914;DHT22;4492;48.736;9.092;2022-07-06T13:04:57;22.80;78.90
8914;DHT22;4492;48.736;9.092;2022-07-06T13:07:24;22.80;78.60
8914;DHT22;4492;48.736;9.092;2022-07-06T13:09:49;22.50;78.60
8914;DHT22;4492;48.736;9.092;2022-07-06T13:12:15;22.30;78.70
8914;DHT22;4492;48.736;9.092;2022-07-06T13:14:48;22.20;79.70
8914;DHT22;4492;48.736;9.092;2022-07-06T13:17:14;22.30;79.50
8914;DHT22;4492;48.736;9.092;2022-07-06T13:19:40;22.60;79.20
8914;DHT22;4492;48.736;9.092;2022-07-06T13:22:05;22.60;78.10
8914;DHT22;4492;48.736;9.092;2022-07-06T13:24:31;22.60;78.30
8914;DHT22;4492;48.736;9.092;2022-07-06T13:26:57;22.70;78.70
8914;DHT22;4492;48.736;9.092;2022-07-06T13:29:23;22.80;78.50
8914;DHT22;4492;48.736;9.092;2022-07-06T13:31:49;22.70;77.70
8914;DHT22;4492;48.736;9.092;2022-07-06T13:34:15;22.70;79.20
8914;DHT22;4492;48.736;9.092;2022-07-06T13:36:41;22.80;77.80
8914;DHT22;4492;48.736;9.092;2022-07-06T13:39:07;22.90;77.20
8914;DHT22;4492;48.736;9.092;2022-07-06T13:41:33;22.80;77.70
8914;DHT22;4492;48.736;9.092;2022-07-06T13:44:00;22.90;77.70
8914;DHT22;4492;48.736;9.092;2022-07-06T13:46:29;23.00;76.50
8914;DHT22;4492;48.736;9.092;2022-07-06T13:48:56;23.00;77.80
8914;DHT22;4492;48.736;9.092;2022-07-06T13:51:24;23.10;77.60
8914;DHT22;4492;48.736;9.092;2022-07-06T13:53:52;23.20;75.70
8914;DHT22;4492;48.736;9.092;2022-07-06T13:56:18;23.20;76.40
8914;DHT22;4492;48.736;9.092;2022-07-06T13:58:43;23.00;76.10
8914;DHT22;4492;48.736;9.092;2022-07-06T14:01:10;22.70;76.20
8914;DHT22;4492;48.736;9.092;2022-07-06T14:03:35;22.40;77.10
8914;DHT22;4492;48.736;9.092;2022-07-06T14:06:03;22.60;76.10
8914;DHT22;4492;48.736;9.092;2022-07-06T14:08:29;22.60;75.60
8914;DHT22;4492;48.736;9.092;2022-07-06T14:10:55;22.60;75.50
8914;DHT22;4492;48.736;9.092;2022-07-06T14:13:21;22.60;76.50
8914;DHT22;4492;48.736;9.092;2022-07-06T14:15:48;22.60;75.70
8914;DHT22;4492;48.736;9.092;2022-07-06T14:18:13;22.60;75.90
8914;DHT22;4492;48.736;9.092;2022-07-06T14:20:40;22.40;75.80
8914;DHT22;4492;48.736;9.092;2022-07-06T14:23:06;22.30;76.30
8914;DHT22;4492;48.736;9.092;2022-07-06T14:25:31;22.30;76.20
8914;DHT22;4492;48.736;9.092;2022-07-06T14:27:57;22.40;76.20
8914;DHT22;4492;48.736;9.092;2022-07-06T14:30:23;22.50;74.70
8914;DHT22;4492;48.736;9.092;2022-07-06T14:32:48;22.50;75.30
8914;DHT22;4492;48.736;9.092;2022-07-06T14:35:37;22.60;75.70
8914;DHT22;4492;48.736;9.092;2022-07-06T14:38:04;22.80;74.70
8914;DHT22;4492;48.736;9.092;2022-07-06T14:40:30;22.90;74.60
8914;DHT22;4492;48.736;9.092;2022-07-06T14:42:57;22.90;75.30
8914;DHT22;4492;48.736;9.092;2022-07-06T14:45:23;22.90;74.30
8914;DHT22;4492;48.736;9.092;2022-07-06T14:47:48;22.80;73.80
8914;DHT22;4492;48.736;9.092;2022-07-06T14:50:14;22.90;73.80
8914;DHT22;4492;48.736;9.092;2022-07-06T14:52:39;23.00;74.40
8914;DHT22;4492;48.736;9.092;2022-07-06T14:55:05;23.30;73.40
8914;DHT22;4492;48.736;9.092;2022-07-06T14:57:31;23.40;73.50
8914;DHT22;4492;48.736;9.092;2022-07-06T14:59:57;23.50;71.70
8914;DHT22;4492;48.736;9.092;2022-07-06T15:02:22;23.40;72.40
8914;DHT22;4492;48.736;9.092;2022-07-06T15:04:48;23.60;73.10
8914;DHT22;4492;48.736;9.092;2022-07-06T15:07:13;23.90;70.20
8914;DHT22;4492;48.736;9.092;2022-07-06T15:09:39;24.00;70.50
8914;DHT22;4492;48.736;9.092;2022-07-06T15:12:05;24.00;70.90
8914;DHT22;4492;48.736;9.092;2022-07-06T15:14:31;24.00;67.60
8914;DHT22;4492;48.736;9.092;2022-07-06T15:17:02;24.00;69.00
8914;DHT22;4492;48.736;9.092;2022-07-06T15:19:28;23.90;69.50
8914;DHT22;4492;48.736;9.092;2022-07-06T15:21:53;23.70;68.80
8914;DHT22;4492;48.736;9.092;2022-07-06T15:24:20;23.90;68.20
8914;DHT22;4492;48.736;9.092;2022-07-06T15:26:46;24.20;67.60
8914;DHT22;4492;48.736;9.092;2022-07-06T15:29:12;24.70;67.70
8914;DHT22;4492;48.736;9.092;2022-07-06T15:31:38;24.80;65.80
8914;DHT22;4492;48.736;9.092;2022-07-06T15:34:03;24.70;65.30
8914;DHT22;4492;48.736;9.092;2022-07-06T15:36:29;24.70;65.30
8914;DHT22;4492;48.736;9.092;2022-07-06T15:38:54;24.60;64.90
8914;DHT22;4492;48.736;9.092;2022-07-06T15:41:20;24.50;64.50
8914;DHT22;4492;48.736;9.092;2022-07-06T15:43:46;24.30;66.90
8914;DHT22;4492;48.736;9.092;2022-07-06T15:46:12;24.40;65.40
8914;DHT22;4492;48.736;9.092;2022-07-06T15:48:37;24.40;64.80
8914;DHT22;4492;48.736;9.092;2022-07-06T15:51:03;24.40;63.70
8914;DHT22;4492;48.736;9.092;2022-07-06T15:53:28;24.30;64.40
8914;DHT22;4492;48.736;9.092;2022-07-06T15:55:56;24.30;65.10
8914;DHT22;4492;48.736;9.092;2022-07-06T15:58:22;24.20;64.60
8914;DHT22;4492;48.736;9.092;2022-07-06T16:00:47;24.10;64.10